Hovedside
METAR-TAF:

METAR-TAF

Lufthavner :

Karleby, Finland

Kronoby lufthavn

breddegrad: 63-43N, lengdegrad: 023-09E, høyde over havet: 25 m

Gjeldene værobservasjon

Denne rapporten ble laget for 32 minutter siden, klokken 18:50 UTC
Vind 3 kt fra Nordøst
Temperatur 6°C
Luftfuktighet 100%
Trykk 1017 hPa
Sikt 10 km eller mer
Få skyer i en høyde av 300 ft
Brutte skyer i en høyde av 800 ft

METAR: EFKK 271850Z AUTO 05003KT 9999 FEW003 BKN008 06/06 Q1017

Tid: 22:22 (19:22 UTC)

Varsel

Denne rapporten ble laget for 3 timer og 37 minutter siden, klokken 15:45 UTC
Varsel gyldig fra 27. klokken 16 UTC til 27. klokken 17 UTC
Vind 8 kt fra Øst
Sikt 10 km eller mer
Brutte skyer i en høyde av 1500 ft
lett regn
Midlertidig
fra 27. klokken 16 UTC til 27. klokken 17 UTC
Sikt: 2500 m
Brutte skyer i en høyde av 800 ft
dis

TAF: EFKK 271545Z 2716/2717 10008KT 9999 -RA BKN015 TEMPO 2716/2717 2500 BR BKN008

Værobservasjoner og værvarsel for over 4000 flyplasser (METAR- og TAF-rapporter).

Tilgjengelige stasjoner er representert av de røde og gule prikkene på kartet.

Hold musepekeren over prikken for å se navnet på stasjonen.

Klikk så for å se værobservasjoner og -varsler.

For å forandre kartet kan du klikke på den grønne knappen med svart kryss for å zoome inn, på den grønne knappen med strek for å zoome ut, eller på de grønne pilene for å se tilstøtende kart.


METAR-TAF: